Time;durP1;ratioP1;P1;durP2;ratioP2;P2;SDS_P1;SDS_P2;PMS_P1;PMS_P2;Temp;Humidity;BMP_temperature;BMP_pressure;BME280_temperature;BME280_humidity;BME280_pressure;Samples;Min_cycle;Max_cycle;Signal;HPM_P1;HPM_P2
2022/10/08 00:01:01;;;;;;;11.80;2.20;;;13.00;99.90;;;;;;5039000;28;20037;-70
2022/10/08 00:03:29;;;;;;;9.38;2.45;;;13.00;99.90;;;;;;5037247;28;20045;-70
2022/10/08 00:06:05;;;;;;;12.98;2.33;;;13.00;99.90;;;;;;5044356;28;20037;-70
2022/10/08 00:08:34;;;;;;;6.95;2.10;;;13.00;99.90;;;;;;5041423;28;20184;-70
2022/10/08 00:11:03;;;;;;;10.85;2.13;;;13.00;99.90;;;;;;5034199;28;20037;-70
2022/10/08 00:13:42;;;;;;;12.93;2.58;;;13.00;99.90;;;;;;5041096;28;20051;-71
2022/10/08 00:16:32;;;;;;;11.13;2.28;;;13.00;99.90;;;;;;5042586;28;20563;-70
2022/10/08 00:19:07;;;;;;;11.30;2.42;;;13.00;99.90;;;;;;5037621;28;20037;-70
2022/10/08 00:21:34;;;;;;;;;;;12.90;99.90;;;;;;5042573;28;20048;-70
2022/10/08 00:24:01;;;;;;;11.10;2.08;;;12.90;99.90;;;;;;5041377;28;19927;-70
2022/10/08 00:26:30;;;;;;;9.23;2.05;;;12.80;99.90;;;;;;5039016;28;20177;-70
2022/10/08 00:28:59;;;;;;;8.75;2.03;;;12.80;99.90;;;;;;5042488;28;20400;-70
2022/10/08 00:31:27;;;;;;;11.05;2.28;;;12.80;99.90;;;;;;5026764;28;20186;-70
2022/10/08 00:33:55;;;;;;;11.77;2.10;;;12.80;99.90;;;;;;5038619;28;20071;-70
2022/10/08 00:36:23;;;;;;;8.18;1.90;;;12.70;99.90;;;;;;5042053;28;20037;-70
2022/10/08 00:38:55;;;;;;;12.55;2.30;;;12.70;99.90;;;;;;5029766;28;20519;-70
2022/10/08 00:41:23;;;;;;;9.63;2.03;;;12.60;99.90;;;;;;5036200;28;20041;-70
2022/10/08 00:43:52;;;;;;;12.32;2.15;;;12.60;99.90;;;;;;5043089;28;20040;-70
2022/10/08 00:46:38;;;;;;;7.75;2.00;;;12.60;99.90;;;;;;5030049;28;20048;-71
2022/10/08 00:49:10;;;;;;;10.30;2.05;;;12.50;99.90;;;;;;5039984;28;20041;-70
2022/10/08 00:51:40;;;;;;;7.20;1.95;;;12.50;99.90;;;;;;5043525;28;20044;-70
2022/10/08 00:54:06;;;;;;;8.90;1.95;;;12.50;99.90;;;;;;5045828;28;20041;-70
2022/10/08 00:56:35;;;;;;;8.07;2.15;;;12.50;99.90;;;;;;5047061;28;20049;-70
2022/10/08 00:59:01;;;;;;;8.45;1.80;;;12.50;99.90;;;;;;5037550;28;20047;-70
2022/10/08 01:01:28;;;;;;;10.55;1.98;;;12.40;99.90;;;;;;5041412;28;20049;-69
2022/10/08 01:03:55;;;;;;;10.07;2.50;;;12.40;99.90;;;;;;5043028;28;20073;-69
2022/10/08 01:06:51;;;;;;;15.68;2.75;;;12.40;99.90;;;;;;5039417;28;20151;-69
2022/10/08 01:09:39;;;;;;;12.10;2.65;;;12.40;99.90;;;;;;5049047;28;20041;-69
2022/10/08 01:12:10;;;;;;;9.00;1.95;;;12.40;99.90;;;;;;5040405;28;20037;-69
2022/10/08 01:14:51;;;;;;;10.50;2.17;;;12.40;99.90;;;;;;5039998;28;20081;-68
2022/10/08 01:17:26;;;;;;;7.90;2.47;;;12.40;99.90;;;;;;5046133;28;20050;-68
2022/10/08 01:20:20;;;;;;;13.38;2.78;;;12.40;99.90;;;;;;5039810;28;20728;-68
2022/10/08 01:23:06;;;;;;;9.68;2.00;;;12.40;99.90;;;;;;5042272;28;20044;-68
2022/10/08 01:25:56;;;;;;;11.05;2.40;;;12.40;99.90;;;;;;5040340;28;20461;-68
2022/10/08 01:28:25;;;;;;;9.55;2.55;;;12.40;99.90;;;;;;5047198;28;20508;-68
2022/10/08 01:31:05;;;;;;;10.05;2.25;;;12.30;99.90;;;;;;5024515;28;20052;-68
2022/10/08 01:33:37;;;;;;;13.23;2.47;;;12.40;99.90;;;;;;5043880;28;20475;-67
2022/10/08 01:36:04;;;;;;;9.35;2.60;;;12.40;99.90;;;;;;5042669;28;20063;-67
2022/10/08 01:38:33;;;;;;;9.70;2.25;;;12.40;99.90;;;;;;5036928;28;20045;-67
2022/10/08 01:41:04;;;;;;;6.70;2.22;;;12.30;99.90;;;;;;5043767;28;20496;-67
2022/10/08 01:43:33;;;;;;;9.80;2.50;;;12.30;99.90;;;;;;5039859;28;20456;-67
2022/10/08 01:46:06;;;;;;;10.30;2.20;;;12.30;99.90;;;;;;5037817;28;20402;-67
2022/10/08 01:48:35;;;;;;;10.57;2.50;;;12.30;99.90;;;;;;5047167;28;20037;-67
2022/10/08 01:51:14;;;;;;;10.35;2.30;;;12.30;99.90;;;;;;5043077;28;20040;-67
2022/10/08 01:53:44;;;;;;;11.68;2.53;;;12.20;99.90;;;;;;5037538;28;20040;-67
2022/10/08 01:56:17;;;;;;;8.77;2.05;;;12.20;99.90;;;;;;5035163;28;20445;-67
2022/10/08 01:59:01;;;;;;;10.60;2.97;;;12.30;99.90;;;;;;5039623;28;20041;-66
2022/10/08 02:01:42;;;;;;;10.93;2.57;;;12.20;99.90;;;;;;5043038;28;20041;-67
2022/10/08 02:06:56;;;;;;;7.75;2.58;;;12.20;99.90;;;;;;5042797;28;20092;-67
2022/10/08 02:09:34;;;;;;;7.70;2.08;;;12.10;99.90;;;;;;5041421;28;20441;-66
2022/10/08 02:12:00;;;;;;;8.88;2.60;;;12.20;99.90;;;;;;5040964;28;20057;-66
2022/10/08 02:14:28;;;;;;;7.72;2.80;;;12.20;99.90;;;;;;5037502;28;20041;-66
2022/10/08 02:17:31;;;;;;;10.48;3.08;;;12.20;99.90;;;;;;5044234;28;20037;-67
2022/10/08 02:20:22;;;;;;;7.43;2.75;;;12.30;99.90;;;;;;5045471;28;20087;-67
2022/10/08 02:23:00;;;;;;;9.30;2.60;;;12.20;99.90;;;;;;5038742;28;20405;-66
2022/10/08 02:25:57;;;;;;;5.90;2.40;;;12.20;99.90;;;;;;5039078;28;20488;-66
2022/10/08 02:28:32;;;;;;;12.23;2.75;;;12.20;99.90;;;;;;5040485;28;20043;-66
2022/10/08 02:31:15;;;;;;;7.72;2.20;;;12.20;99.90;;;;;;5040634;28;20042;-66
2022/10/08 02:33:59;;;;;;;10.20;2.50;;;12.20;99.90;;;;;;5022433;28;20056;-67
2022/10/08 02:36:33;;;;;;;7.40;2.38;;;12.20;99.90;;;;;;5041251;28;20037;-68
2022/10/08 02:39:05;;;;;;;12.02;2.40;;;12.20;99.90;;;;;;5023705;28;20152;-67
2022/10/08 02:41:36;;;;;;;9.68;2.85;;;12.20;99.90;;;;;;5022427;28;20041;-67
2022/10/08 02:44:07;;;;;;;7.68;2.05;;;12.20;99.90;;;;;;5037232;28;20041;-67
2022/10/08 02:46:37;;;;;;;9.93;2.58;;;12.20;99.90;;;;;;5045030;28;20041;-67
2022/10/08 02:49:16;;;;;;;9.75;2.80;;;12.20;99.90;;;;;;5043495;28;20041;-67
2022/10/08 02:51:49;;;;;;;5.05;1.77;;;12.10;99.90;;;;;;5037795;28;20045;-67
2022/10/08 02:54:19;;;;;;;5.13;1.83;;;12.10;99.90;;;;;;5042995;28;20367;-67
2022/10/08 02:56:50;;;;;;;8.40;1.92;;;11.90;99.90;;;;;;5041819;28;20040;-67
2022/10/08 02:59:18;;;;;;;6.78;1.90;;;11.90;99.90;;;;;;5038782;28;20095;-67
2022/10/08 03:01:45;;;;;;;8.85;2.10;;;11.80;99.90;;;;;;5039945;28;20136;-67
2022/10/08 03:04:28;;;;;;;8.70;2.38;;;11.70;99.90;;;;;;5038166;28;20049;-67
2022/10/08 03:06:55;;;;;;;8.20;2.10;;;11.60;99.90;;;;;;5038911;28;20128;-67
2022/10/08 03:09:23;;;;;;;7.70;1.75;;;11.50;99.90;;;;;;5034221;28;20064;-67
2022/10/08 03:11:49;;;;;;;5.68;2.40;;;11.40;99.90;;;;;;5036026;28;20053;-67
2022/10/08 03:14:18;;;;;;;6.30;1.80;;;11.30;99.90;;;;;;5041059;28;20060;-67
2022/10/08 03:16:46;;;;;;;5.68;1.55;;;11.20;99.90;;;;;;5027287;28;20049;-67
2022/10/08 03:19:14;;;;;;;6.00;1.95;;;11.10;99.90;;;;;;5040139;28;20078;-67
2022/10/08 03:21:43;;;;;;;6.00;1.70;;;11.10;99.90;;;;;;5036551;28;20047;-66
2022/10/08 03:24:10;;;;;;;7.70;1.60;;;11.00;99.90;;;;;;5040976;28;20056;-67
2022/10/08 03:26:36;;;;;;;7.40;1.45;;;10.90;99.90;;;;;;5041177;28;20400;-68
2022/10/08 03:29:03;;;;;;;8.05;2.10;;;10.80;99.90;;;;;;5042371;28;20034;-67
2022/10/08 03:31:29;;;;;;;10.43;1.90;;;10.80;99.90;;;;;;5036241;28;20116;-67
2022/10/08 03:33:54;;;;;;;6.93;1.77;;;10.80;99.90;;;;;;5035790;28;20116;-67
2022/10/08 03:36:22;;;;;;;6.10;1.60;;;10.70;99.90;;;;;;5040635;28;20048;-67
2022/10/08 03:38:48;;;;;;;6.18;1.77;;;10.70;99.90;;;;;;5016495;28;20128;-66
2022/10/08 03:41:14;;;;;;;6.32;1.88;;;10.60;99.90;;;;;;5035031;28;20124;-67
2022/10/08 03:43:40;;;;;;;10.27;2.20;;;10.50;99.90;;;;;;5035611;28;20052;-67
2022/10/08 03:46:07;;;;;;;8.10;2.25;;;10.60;99.90;;;;;;5040245;28;20036;-66
2022/10/08 03:48:33;;;;;;;10.63;2.50;;;10.60;99.90;;;;;;5035318;28;20037;-67
2022/10/08 03:51:06;;;;;;;8.63;2.00;;;10.50;99.90;;;;;;5020705;28;20490;-66
2022/10/08 03:53:37;;;;;;;5.63;1.70;;;10.50;99.90;;;;;;5037867;28;20099;-66
2022/10/08 03:56:05;;;;;;;9.10;2.60;;;10.50;99.90;;;;;;5034844;28;20083;-66
2022/10/08 03:58:31;;;;;;;11.38;1.95;;;10.50;99.90;;;;;;5039444;28;20040;-67
2022/10/08 04:01:04;;;;;;;10.45;2.35;;;10.40;99.90;;;;;;5035388;28;20049;-67
2022/10/08 04:03:31;;;;;;;13.02;2.45;;;10.40;99.90;;;;;;5038498;28;20044;-67
2022/10/08 04:05:57;;;;;;;6.55;1.70;;;10.40;99.90;;;;;;5032028;28;20046;-67
2022/10/08 04:08:23;;;;;;;8.57;2.33;;;10.40;99.90;;;;;;5035606;28;20056;-67
2022/10/08 04:10:49;;;;;;;7.38;2.42;;;10.50;99.90;;;;;;5035193;28;20507;-67
2022/10/08 04:13:16;;;;;;;10.98;2.10;;;10.50;99.90;;;;;;5035823;28;20048;-68
2022/10/08 04:15:43;;;;;;;10.00;2.78;;;10.60;99.90;;;;;;5038932;28;20547;-67
2022/10/08 04:18:11;;;;;;;6.57;2.10;;;10.70;99.90;;;;;;5036511;28;20048;-67
2022/10/08 04:20:39;;;;;;;7.93;1.67;;;10.70;99.90;;;;;;5037169;28;20049;-67
2022/10/08 04:23:08;;;;;;;9.93;2.20;;;10.80;99.90;;;;;;5038235;28;20069;-67
2022/10/08 04:25:35;;;;;;;10.50;2.83;;;10.80;99.90;;;;;;5039861;28;20123;-67
2022/10/08 04:28:04;;;;;;;10.75;2.55;;;10.90;99.90;;;;;;5031497;28;20405;-67
2022/10/08 04:30:30;;;;;;;8.77;2.22;;;11.00;99.90;;;;;;5056299;28;20504;-67
2022/10/08 04:32:57;;;;;;;12.05;2.55;;;10.90;99.90;;;;;;5022323;28;20142;-67
2022/10/08 04:35:23;;;;;;;7.70;2.67;;;11.00;99.90;;;;;;5042333;28;20041;-68
2022/10/08 04:37:48;;;;;;;9.82;2.72;;;11.00;99.90;;;;;;5034771;28;20136;-67
2022/10/08 04:40:14;;;;;;;17.55;3.13;;;11.10;99.90;;;;;;5043310;28;20128;-68
2022/10/08 04:42:39;;;;;;;8.45;2.47;;;11.10;99.90;;;;;;5036644;28;20061;-68
2022/10/08 04:45:06;;;;;;;6.47;2.70;;;11.20;99.90;;;;;;5041555;28;20041;-69
2022/10/08 04:47:31;;;;;;;7.70;2.28;;;11.20;99.90;;;;;;5039116;28;20033;-69
2022/10/08 04:49:57;;;;;;;11.30;2.42;;;11.20;99.90;;;;;;5035102;28;20052;-67
2022/10/08 04:52:23;;;;;;;11.35;2.50;;;11.20;99.90;;;;;;5035246;28;20140;-69
2022/10/08 04:54:48;;;;;;;10.88;2.90;;;11.30;99.90;;;;;;5036663;28;20515;-67
2022/10/08 04:57:14;;;;;;;10.73;3.10;;;11.30;99.90;;;;;;5040551;28;20064;-67
2022/10/08 04:59:40;;;;;;;13.38;2.80;;;11.30;99.90;;;;;;5038727;28;20412;-67
2022/10/08 05:02:05;;;;;;;14.00;2.83;;;11.40;99.90;;;;;;5037150;28;20049;-67
2022/10/08 05:04:31;;;;;;;11.30;2.80;;;11.30;99.90;;;;;;5033685;28;20045;-67
2022/10/08 05:06:57;;;;;;;16.25;3.00;;;11.30;99.90;;;;;;5042739;28;20465;-67
2022/10/08 05:09:22;;;;;;;12.02;2.70;;;11.30;99.90;;;;;;5041963;28;20198;-67
2022/10/08 05:11:49;;;;;;;15.38;2.55;;;11.30;99.90;;;;;;5042383;28;20110;-68
2022/10/08 05:14:15;;;;;;;9.98;2.72;;;11.30;99.90;;;;;;5037377;28;20056;-68
2022/10/08 05:16:41;;;;;;;11.25;2.50;;;11.30;99.90;;;;;;5040267;28;20466;-67
2022/10/08 05:19:07;;;;;;;9.25;2.50;;;11.30;99.90;;;;;;5039953;28;20033;-68
2022/10/08 05:21:32;;;;;;;11.85;2.50;;;11.20;99.90;;;;;;5034614;28;20052;-67
2022/10/08 05:24:04;;;;;;;9.90;2.58;;;11.10;99.90;;;;;;5052810;28;20037;-67
2022/10/08 05:26:33;;;;;;;9.98;2.42;;;11.10;99.90;;;;;;5033586;28;20128;-68
2022/10/08 05:29:00;;;;;;;10.60;2.30;;;11.00;99.90;;;;;;5039410;28;20059;-67
2022/10/08 05:31:28;;;;;;;8.02;1.70;;;10.90;99.90;;;;;;5045567;28;20045;-68
2022/10/08 05:33:54;;;;;;;12.23;1.85;;;10.80;99.90;;;;;;5035783;28;20033;-67
2022/10/08 05:36:22;;;;;;;8.10;2.15;;;10.70;99.90;;;;;;5039267;28;20390;-67
2022/10/08 05:38:48;;;;;;;7.80;1.55;;;10.70;99.90;;;;;;5038177;28;20033;-67
2022/10/08 05:41:20;;;;;;;7.70;1.77;;;10.60;99.90;;;;;;5039359;28;20523;-68
2022/10/08 05:43:47;;;;;;;11.25;2.05;;;10.60;99.90;;;;;;5037158;28;20068;-67
2022/10/08 05:46:14;;;;;;;13.10;2.45;;;10.50;99.90;;;;;;5042142;28;20128;-67
2022/10/08 05:48:39;;;;;;;12.07;1.98;;;10.50;99.90;;;;;;5039047;28;20100;-68
2022/10/08 05:51:14;;;;;;;10.98;2.15;;;10.40;99.90;;;;;;5039280;28;20076;-67
2022/10/08 05:53:42;;;;;;;12.57;2.20;;;10.30;99.90;;;;;;5042379;28;20118;-68
2022/10/08 05:56:10;;;;;;;9.50;1.88;;;10.30;99.90;;;;;;5050191;28;20040;-67
2022/10/08 05:58:38;;;;;;;11.40;1.77;;;10.30;99.90;;;;;;5041239;28;20052;-67
2022/10/08 06:01:15;;;;;;;11.05;2.08;;;10.20;99.90;;;;;;5045579;28;20354;-67
2022/10/08 06:03:42;;;;;;;13.93;1.80;;;10.20;99.90;;;;;;5039325;28;20141;-67
2022/10/08 06:06:09;;;;;;;10.95;2.05;;;10.20;99.90;;;;;;5046688;28;20082;-67
2022/10/08 06:08:36;;;;;;;12.93;2.38;;;10.20;99.90;;;;;;5036955;28;20500;-67
2022/10/08 06:11:04;;;;;;;9.00;2.47;;;10.20;99.90;;;;;;5039051;28;20500;-67
2022/10/08 06:13:30;;;;;;;9.50;2.70;;;10.20;99.90;;;;;;5035853;28;20045;-68
2022/10/08 06:16:00;;;;;;;10.30;3.08;;;10.20;99.90;;;;;;5038014;28;20064;-67
2022/10/08 06:18:27;;;;;;;15.43;3.15;;;10.20;99.90;;;;;;5040568;28;20121;-67
2022/10/08 06:20:53;;;;;;;11.60;3.17;;;10.20;99.90;;;;;;5041513;28;20048;-67
2022/10/08 06:23:20;;;;;;;11.40;3.25;;;10.20;99.90;;;;;;5038607;28;20052;-67
2022/10/08 06:25:46;;;;;;;10.88;3.20;;;10.20;99.90;;;;;;5038650;28;20041;-68
2022/10/08 06:28:12;;;;;;;15.52;3.22;;;10.20;99.90;;;;;;5032812;28;20067;-68
2022/10/08 06:30:40;;;;;;;12.13;3.08;;;10.20;99.90;;;;;;5040725;28;20033;-68
2022/10/08 06:33:06;;;;;;;12.85;3.35;;;10.30;99.90;;;;;;5038537;28;20167;-66
2022/10/08 06:35:32;;;;;;;12.43;3.40;;;10.30;99.90;;;;;;5022940;28;20533;-67
2022/10/08 06:37:58;;;;;;;13.35;3.25;;;10.20;99.90;;;;;;5036469;28;20409;-67
2022/10/08 06:40:24;;;;;;;13.63;3.88;;;10.30;99.90;;;;;;5039973;28;20106;-68
2022/10/08 06:42:50;;;;;;;12.82;3.92;;;10.30;99.90;;;;;;5045247;28;20037;-68
2022/10/08 06:45:16;;;;;;;16.42;3.55;;;10.40;99.90;;;;;;5041494;28;20089;-68
2022/10/08 06:47:42;;;;;;;11.20;4.00;;;10.50;99.90;;;;;;5038513;28;20191;-68
2022/10/08 06:50:08;;;;;;;15.30;4.00;;;10.70;99.90;;;;;;5034603;28;20071;-68
2022/10/08 06:52:33;;;;;;;13.57;3.58;;;10.70;99.90;;;;;;5034714;28;20133;-69
2022/10/08 06:54:59;;;;;;;10.88;3.17;;;10.80;99.90;;;;;;5043232;28;20056;-67
2022/10/08 06:57:25;;;;;;;11.23;3.33;;;10.90;99.90;;;;;;5042455;28;20087;-69
2022/10/08 06:59:53;;;;;;;12.40;3.55;;;11.00;99.90;;;;;;5041385;28;20093;-68
2022/10/08 07:02:19;;;;;;;15.15;3.80;;;11.20;99.90;;;;;;5019639;28;20041;-68
2022/10/08 07:04:45;;;;;;;11.38;3.17;;;11.30;99.90;;;;;;5040126;28;20405;-68
2022/10/08 07:07:12;;;;;;;14.45;3.47;;;11.40;99.90;;;;;;5034638;28;20045;-68
2022/10/08 07:09:38;;;;;;;9.93;3.42;;;11.70;99.90;;;;;;5042053;28;20083;-68
2022/10/08 07:12:03;;;;;;;13.90;3.05;;;11.80;99.90;;;;;;5038915;28;20055;-69
2022/10/08 07:14:29;;;;;;;10.48;3.15;;;12.10;99.90;;;;;;5041095;28;20075;-69
2022/10/08 07:16:54;;;;;;;8.50;2.35;;;12.60;99.90;;;;;;5037829;28;20081;-68
2022/10/08 07:19:20;;;;;;;11.65;3.13;;;13.20;99.90;;;;;;5036407;28;20081;-68
2022/10/08 07:21:46;;;;;;;13.00;2.80;;;13.30;99.90;;;;;;5041913;28;20052;-68
2022/10/08 07:24:11;;;;;;;13.40;2.78;;;13.20;99.90;;;;;;5019615;28;20557;-69
2022/10/08 07:26:37;;;;;;;20.08;9.70;;;13.00;99.90;;;;;;5038850;28;20061;-68
2022/10/08 07:29:11;;;;;;;12.85;3.90;;;13.10;99.90;;;;;;5038889;28;20033;-69
2022/10/08 07:31:38;;;;;;;10.40;2.38;;;13.40;99.90;;;;;;5041789;28;20069;-69
2022/10/08 07:34:11;;;;;;;9.40;1.90;;;13.40;99.90;;;;;;5042848;28;20049;-68
2022/10/08 07:36:38;;;;;;;10.00;2.10;;;13.40;99.90;;;;;;5040915;28;20439;-68
2022/10/08 07:39:12;;;;;;;8.02;1.67;;;14.10;99.90;;;;;;5039799;28;20063;-69
2022/10/08 07:41:38;;;;;;;8.30;1.55;;;15.30;99.90;;;;;;5040900;28;20076;-69
2022/10/08 07:44:04;;;;;;;8.32;1.70;;;16.30;99.90;;;;;;5039188;28;20045;-69
2022/10/08 07:46:33;;;;;;;8.35;1.75;;;17.40;99.90;;;;;;5039971;28;20390;-69
2022/10/08 07:49:00;;;;;;;7.28;1.58;;;18.40;99.90;;;;;;5044312;28;20053;-69
2022/10/08 07:51:28;;;;;;;9.60;2.00;;;19.10;99.90;;;;;;5037004;28;20088;-69
2022/10/08 07:53:54;;;;;;;8.70;1.75;;;19.90;99.90;;;;;;5042617;28;20052;-70
2022/10/08 07:56:21;;;;;;;9.48;1.67;;;20.30;99.90;;;;;;5042074;28;20076;-69
2022/10/08 07:58:48;;;;;;;6.40;1.52;;;20.70;99.90;;;;;;5037771;28;20052;-69
2022/10/08 08:01:18;;;;;;;15.57;5.82;;;21.10;99.90;;;;;;5035660;28;20114;-69
2022/10/08 08:03:43;;;;;;;12.43;4.28;;;21.40;99.90;;;;;;5038827;28;20041;-69
2022/10/08 08:06:12;;;;;;;9.35;2.67;;;21.80;99.90;;;;;;5042914;28;20099;-69
2022/10/08 08:08:40;;;;;;;7.18;1.55;;;22.00;99.90;;;;;;5040234;28;20038;-68
2022/10/08 08:11:07;;;;;;;8.20;1.80;;;22.30;99.90;;;;;;5036278;28;20049;-69
2022/10/08 08:13:35;;;;;;;10.75;1.70;;;22.40;99.90;;;;;;5042533;28;20478;-69
2022/10/08 08:16:09;;;;;;;8.85;2.20;;;22.60;98.60;;;;;;5039461;28;20131;-69
2022/10/08 08:18:38;;;;;;;9.10;2.15;;;22.80;97.70;;;;;;5041117;28;20084;-68
2022/10/08 08:21:09;;;;;;;8.10;1.95;;;22.80;95.70;;;;;;5044522;28;20053;-69
2022/10/08 08:23:37;;;;;;;10.45;2.35;;;22.70;93.90;;;;;;5042344;28;20393;-69
2022/10/08 08:26:05;;;;;;;10.75;2.90;;;22.80;94.90;;;;;;5045326;28;20394;-69
2022/10/08 08:28:31;;;;;;;7.05;1.80;;;23.00;93.40;;;;;;5040679;28;20044;-69
2022/10/08 08:31:08;;;;;;;9.50;2.08;;;23.20;92.50;;;;;;5038976;28;20386;-69
2022/10/08 08:33:33;;;;;;;8.68;1.52;;;23.40;87.10;;;;;;5041515;28;20057;-69
2022/10/08 08:35:59;;;;;;;9.15;2.22;;;23.50;90.50;;;;;;5045044;28;20033;-69
2022/10/08 08:38:25;;;;;;;11.27;2.03;;;23.70;88.10;;;;;;5043377;28;20094;-69
2022/10/08 08:40:54;;;;;;;9.18;1.80;;;23.90;86.90;;;;;;5043893;28;20509;-69
2022/10/08 08:43:20;;;;;;;8.82;1.90;;;23.90;84.60;;;;;;5043030;28;20380;-70
2022/10/08 08:45:47;;;;;;;8.52;1.77;;;23.90;85.20;;;;;;5041399;28;20037;-69
2022/10/08 08:48:25;;;;;;;9.88;2.17;;;24.10;85.40;;;;;;5043598;28;20045;-69
2022/10/08 08:50:56;;;;;;;8.55;1.83;;;24.40;80.80;;;;;;5044767;28;20044;-70
2022/10/08 08:53:22;;;;;;;5.15;1.27;;;24.40;80.30;;;;;;5038643;28;20048;-70
2022/10/08 08:55:53;;;;;;;7.72;1.50;;;24.40;79.40;;;;;;5038147;28;20709;-70
2022/10/08 08:58:33;;;;;;;4.28;0.82;;;24.40;76.30;;;;;;5035962;28;20083;-70
2022/10/08 09:01:08;;;;;;;5.80;1.15;;;24.10;74.90;;;;;;5031912;28;20041;-69
2022/10/08 09:03:49;;;;;;;6.20;0.82;;;23.70;71.60;;;;;;5055950;28;20045;-69
2022/10/08 09:06:18;;;;;;;5.70;1.10;;;23.40;74.10;;;;;;5043789;28;20045;-69
2022/10/08 09:09:18;;;;;;;6.32;1.40;;;23.20;75.50;;;;;;5041085;28;20060;-70
2022/10/08 09:11:44;;;;;;;6.43;1.02;;;23.00;72.90;;;;;;5040243;28;20057;-69
2022/10/08 09:14:13;;;;;;;5.18;1.13;;;23.20;75.60;;;;;;5040295;28;20152;-68
2022/10/08 09:16:39;;;;;;;5.78;0.95;;;23.40;75.30;;;;;;5040444;28;20140;-68
2022/10/08 09:19:05;;;;;;;5.03;0.95;;;23.60;74.60;;;;;;5037394;28;20037;-68
2022/10/08 09:21:33;;;;;;;3.92;0.93;;;22.90;72.20;;;;;;5043543;28;20037;-69
2022/10/08 09:23:59;;;;;;;7.75;1.40;;;21.60;73.30;;;;;;5044242;28;20440;-68
2022/10/08 09:26:29;;;;;;;3.72;0.80;;;20.90;74.80;;;;;;5041721;28;20505;-69
2022/10/08 09:28:57;;;;;;;5.70;0.90;;;20.30;77.00;;;;;;5042263;28;20607;-68
2022/10/08 09:31:47;;;;;;;4.45;0.93;;;20.40;78.90;;;;;;5039011;28;20258;-68
2022/10/08 09:34:14;;;;;;;6.32;0.90;;;21.10;78.50;;;;;;5037315;28;20423;-68
2022/10/08 09:36:49;;;;;;;5.35;0.77;;;20.70;77.00;;;;;;5041538;28;20040;-68
2022/10/08 09:39:26;;;;;;;6.03;0.85;;;20.60;77.70;;;;;;5045632;28;20052;-68
2022/10/08 09:42:07;;;;;;;5.28;0.80;;;19.70;77.70;;;;;;5042501;28;20038;-67
2022/10/08 09:44:42;;;;;;;7.03;0.95;;;19.00;79.30;;;;;;5040092;28;20128;-67
2022/10/08 09:47:14;;;;;;;6.30;1.13;;;18.80;80.50;;;;;;5045180;28;20047;-67
2022/10/08 09:49:40;;;;;;;6.95;1.08;;;19.50;81.40;;;;;;5044556;28;20067;-67
2022/10/08 09:52:10;;;;;;;11.50;1.20;;;20.00;81.70;;;;;;5043776;28;20131;-67
2022/10/08 09:54:45;;;;;;;6.47;1.00;;;20.50;80.40;;;;;;5039267;28;20049;-67
2022/10/08 09:57:19;;;;;;;7.85;1.15;;;20.50;77.30;;;;;;5042738;28;20107;-69
2022/10/08 09:59:59;;;;;;;5.35;0.75;;;19.60;78.00;;;;;;5043990;28;20041;-68
2022/10/08 10:02:32;;;;;;;5.72;0.85;;;19.20;82.60;;;;;;5046656;28;20084;-68
2022/10/08 10:05:01;;;;;;;6.63;1.08;;;18.50;81.90;;;;;;5046649;28;20087;-68
2022/10/08 10:07:42;;;;;;;6.28;1.08;;;17.60;89.80;;;;;;5045648;28;20048;-69
2022/10/08 10:10:22;;;;;;;5.70;0.90;;;16.80;94.90;;;;;;5040175;28;20049;-68
2022/10/08 10:12:54;;;;;;;5.95;1.00;;;16.80;99.90;;;;;;5041456;28;20076;-67
2022/10/08 10:15:28;;;;;;;5.75;1.05;;;16.90;99.90;;;;;;5047738;28;20041;-67
2022/10/08 10:18:01;;;;;;;6.05;0.85;;;16.60;99.90;;;;;;5040389;28;20060;-66
2022/10/08 10:20:44;;;;;;;8.10;1.10;;;16.10;99.90;;;;;;5036475;28;20124;-66
2022/10/08 10:23:16;;;;;;;5.03;0.73;;;15.60;99.90;;;;;;5043090;28;20064;-66
2022/10/08 10:26:12;;;;;;;7.25;0.90;;;15.60;99.90;;;;;;5045802;28;20045;-66
2022/10/08 10:28:43;;;;;;;6.85;0.98;;;16.40;99.90;;;;;;5036281;28;20045;-66
2022/10/08 10:31:32;;;;;;;8.20;1.00;;;16.60;99.90;;;;;;5045782;28;20547;-67
2022/10/08 10:34:19;;;;;;;6.03;0.88;;;16.00;99.90;;;;;;5040383;28;20055;-66
2022/10/08 10:36:54;;;;;;;4.30;0.68;;;15.50;99.90;;;;;;5039273;28;20055;-67
2022/10/08 10:39:38;;;;;;;7.90;1.08;;;15.00;99.90;;;;;;5042785;28;20048;-67
2022/10/08 10:42:26;;;;;;;8.13;0.70;;;16.00;99.90;;;;;;5023359;28;20048;-68
2022/10/08 10:44:56;;;;;;;6.85;1.38;;;17.30;99.90;;;;;;5041248;28;20558;-67
2022/10/08 10:47:24;;;;;;;9.25;1.25;;;18.30;99.90;;;;;;5039998;28;20049;-68
2022/10/08 10:49:51;;;;;;;9.80;1.05;;;19.20;99.90;;;;;;5035858;28;20049;-68
2022/10/08 10:52:57;;;;;;;6.55;1.08;;;19.80;99.90;;;;;;5042356;28;20148;-68
2022/10/08 10:55:39;;;;;;;7.28;1.23;;;20.50;95.50;;;;;;5039658;28;20059;-68
2022/10/08 10:58:09;;;;;;;7.13;1.15;;;20.70;94.80;;;;;;5041357;28;20056;-68
2022/10/08 11:00:47;;;;;;;7.60;1.17;;;20.90;96.90;;;;;;5042592;28;20187;-68
2022/10/08 11:03:50;;;;;;;6.63;0.93;;;21.60;95.70;;;;;;5042961;28;20060;-68
2022/10/08 11:06:42;;;;;;;4.93;1.02;;;22.30;88.60;;;;;;5035493;28;20065;-69
2022/10/08 11:09:20;;;;;;;7.63;1.25;;;22.70;78.90;;;;;;5039344;28;20073;-68
2022/10/08 11:11:52;;;;;;;5.63;0.90;;;22.80;81.20;;;;;;5038823;28;21277;-69
2022/10/08 11:14:49;;;;;;;5.53;1.02;;;22.90;77.30;;;;;;5039516;28;20087;-68
2022/10/08 11:17:28;;;;;;;5.63;0.60;;;23.00;75.00;;;;;;5036671;28;20048;-68
2022/10/08 11:20:23;;;;;;;3.63;0.50;;;22.80;72.20;;;;;;5038633;28;20482;-68
2022/10/08 11:23:04;;;;;;;3.95;0.60;;;22.30;66.10;;;;;;5040524;28;20045;-69
2022/10/08 11:25:55;;;;;;;3.90;0.85;;;22.00;67.80;;;;;;5039175;28;20033;-68
2022/10/08 11:28:44;;;;;;;4.80;0.80;;;21.90;67.50;;;;;;4997256;28;20049;-68
2022/10/08 11:31:24;;;;;;;5.65;0.75;;;21.30;71.00;;;;;;5036703;28;20061;-68
2022/10/08 11:33:53;;;;;;;3.30;0.50;;;21.20;68.80;;;;;;5040291;28;20095;-68
2022/10/08 11:36:43;;;;;;;5.88;1.15;;;21.60;70.10;;;;;;5038256;28;20052;-67
2022/10/08 11:39:20;;;;;;;5.03;0.90;;;21.80;66.90;;;;;;5038532;28;20040;-68
2022/10/08 11:41:52;;;;;;;6.47;0.82;;;21.90;68.10;;;;;;5039031;28;20053;-68
2022/10/08 11:44:19;;;;;;;5.72;1.10;;;22.40;69.40;;;;;;5040468;28;20044;-68
2022/10/08 11:46:45;;;;;;;3.95;0.80;;;22.70;67.60;;;;;;5035772;28;20045;-68
2022/10/08 11:49:14;;;;;;;8.40;1.13;;;22.90;67.90;;;;;;5040375;28;20117;-68
2022/10/08 11:51:50;;;;;;;4.72;0.70;;;23.10;66.70;;;;;;5044021;28;20496;-68
2022/10/08 11:54:22;;;;;;;7.68;0.98;;;23.20;64.80;;;;;;5025312;28;20122;-70
2022/10/08 11:57:08;;;;;;;3.97;0.68;;;23.20;63.90;;;;;;5036056;28;20088;-68
2022/10/08 11:59:40;;;;;;;5.93;0.93;;;23.40;62.20;;;;;;5040853;28;20038;-67
2022/10/08 12:02:31;;;;;;;4.25;0.88;;;22.30;59.90;;;;;;5042689;28;20089;-67
2022/10/08 12:05:17;;;;;;;4.57;0.85;;;20.50;63.10;;;;;;5034171;28;20084;-67
2022/10/08 12:07:50;;;;;;;5.15;0.70;;;19.60;64.20;;;;;;5036449;28;20130;-67
2022/10/08 12:10:18;;;;;;;7.32;1.30;;;19.70;67.50;;;;;;5042670;28;20037;-67
2022/10/08 12:12:50;;;;;;;6.13;1.25;;;20.10;66.80;;;;;;5038154;28;20410;-68
2022/10/08 12:15:22;;;;;;;5.15;0.90;;;20.50;67.40;;;;;;5034191;28;20548;-67
2022/10/08 12:17:56;;;;;;;8.73;1.05;;;20.00;63.10;;;;;;5041478;28;20448;-67
2022/10/08 12:20:24;;;;;;;4.45;0.70;;;18.70;67.40;;;;;;5041594;28;20057;-67
2022/10/08 12:23:00;;;;;;;4.25;0.65;;;17.90;69.70;;;;;;5039914;28;20037;-67
2022/10/08 12:25:57;;;;;;;6.20;0.98;;;17.20;71.50;;;;;;5037070;28;20481;-67
2022/10/08 12:28:36;;;;;;;7.78;1.13;;;16.50;73.90;;;;;;5036180;28;20519;-67
2022/10/08 12:31:20;;;;;;;5.97;1.05;;;16.10;76.20;;;;;;5044840;28;20041;-66
2022/10/08 12:34:20;;;;;;;6.03;0.90;;;15.90;77.20;;;;;;5042868;28;20037;-67
2022/10/08 12:37:02;;;;;;;5.50;0.85;;;15.50;77.00;;;;;;5001717;28;20144;-66
2022/10/08 12:39:38;;;;;;;7.75;1.17;;;15.30;78.70;;;;;;5043005;28;20152;-66
2022/10/08 12:42:35;;;;;;;4.88;1.00;;;15.30;81.40;;;;;;5039448;28;20118;-66
2022/10/08 12:45:14;;;;;;;6.38;0.80;;;16.10;81.70;;;;;;5029794;28;20044;-67
2022/10/08 12:48:07;;;;;;;6.80;1.20;;;16.90;78.50;;;;;;5041224;28;20045;-67
2022/10/08 12:51:14;;;;;;;6.32;0.60;;;18.20;76.10;;;;;;5044805;28;20033;-67
2022/10/08 12:53:46;;;;;;;4.53;0.77;;;19.50;72.60;;;;;;4988892;28;20069;-67
2022/10/08 12:56:28;;;;;;;5.28;0.80;;;20.40;71.70;;;;;;5030664;28;20049;-67
2022/10/08 12:58:56;;;;;;;4.22;0.80;;;21.10;67.40;;;;;;5043083;28;20047;-66
2022/10/08 13:01:23;;;;;;;6.38;0.85;;;21.50;66.90;;;;;;5039194;28;20053;-67
2022/10/08 13:04:22;;;;;;;6.43;0.95;;;22.00;65.60;;;;;;5040182;28;20053;-67
2022/10/08 13:06:50;;;;;;;6.68;1.15;;;22.20;64.60;;;;;;5044382;28;20044;-68
2022/10/08 13:09:28;;;;;;;8.40;1.10;;;21.80;65.30;;;;;;5042208;28;20851;-67
2022/10/08 13:11:56;;;;;;;8.05;1.30;;;20.70;66.50;;;;;;5038953;28;20075;-67